Aviation Digital Data Service (ADDS)

Output produced by METARs form (1423 UTC 07 December 2016)
found at http://www.aviationweather.gov/adds/metars/
 
KMDT 071408Z 30004KT 5SM BR SCT006 SCT023 BKN200 04/04 A3002 RMK AO2 T00440044
KMDT 071356Z 28004KT 5SM BR BKN006 BKN023 OVC200 04/04 A3002 RMK AO2 SLP167 T00440039
KMDT 071256Z 30005KT 6SM BR OVC006 04/04 A2999 RMK AO2 SLP158 T00390039 $
KMDT 071206Z 00000KT 10SM BKN009 OVC015 04/04 A2999 RMK AO2 CIG 007V011 T00440039 $
KMDT 071156Z 27004KT 9SM SCT009 BKN015 OVC023 04/04 A2998 RMK AO2 SLP156 60000 70071 T00440039 10044 20033 53021 $
KMDT 071056Z 00000KT 5SM BR FEW007 BKN025 OVC037 04/04 A2995 RMK AO2 SLP143 T00390039 $
KMDT 071024Z 00000KT 5SM BR FEW007 OVC029 04/04 A2993 RMK AO2 T00390039 $
KMDT 070956Z 00000KT 4SM BR BKN005 BKN009 OVC033 04/04 A2993 RMK AO2 SLP137 T00390039 $
KMDT 070856Z 30004KT 3SM BR FEW004 OVC009 04/04 A2992 RMK AO2 DZE54 CIG 005V011 SLP135 P0000 60000 T00390039 51024 $
KMDT 070815Z 31004KT 3SM -DZ BR BKN007 OVC016 03/03 A2991 RMK AO2 P0000 T00330033 $
KMDT 070756Z 32004KT 3SM -DZ BR SCT007 OVC014 03/03 A2990 RMK AO2 DZB53 SLP127 P0000 T00330033 $
KMDT 070656Z 32004KT 4SM BR FEW007 OVC013 03/03 A2989 RMK AO2 DZE37 SLP124 P0000 T00330033 $
KMDT 070638Z 31003KT 4SM BR SCT007 OVC012 03/03 A2988 RMK AO2 DZE37 P0000 T00330033 $
KMDT 070556Z 35003KT 3SM -DZ BR OVC007 03/03 A2985 RMK AO2 RAB06E47DZB54 CIG 005V010 SLP111 P0000 60009 T00330033 10033 20028 53002 $
KMDT 070456Z 33006KT 5SM BR OVC007 03/03 A2985 RMK AO2 RAE01DZB01E24 CIG 006V010 SLP111 P0000 T00330028 400441011 $
KMDT 070356Z 00000KT 4SM -RA BR SCT010 BKN015 OVC044 03/03 A2984 RMK AO2 RAB06 SLP107 P0000 T00330033 $
KMDT 070256Z 36003KT 9SM BKN010 OVC014 03/03 A2984 RMK AO2 RAE12B33E51 SLP109 P0000 60009 T00330028 55016 $
KMDT 070237Z VRB04KT 9SM -RA OVC010 03/03 A2983 RMK AO2 RAE12B33 P0000 T00330028 $
KMDT 070156Z 10003KT 3SM -RA BR BKN007 OVC012 03/03 A2984 RMK AO2 SFC VIS 6 SLP108 P0003 T00280028 $
KMDT 070056Z 04004KT 3SM -RA BR OVC008 03/03 A2988 RMK AO2 SFC VIS 4 SLP121 P0006 T00280028 $
KMDT 062356Z 00000KT 3SM R13/5000VP6000FT RA BR SCT008 OVC010 03/03 A2989 RMK AO2 SLP126 P0011 60060 T00280028 10044 20028 53004 $
KMDT 062256Z 01004KT 3SM RA BR BKN008 OVC013 03/03 A2987 RMK AO2 CIG 006V010 SLP119 P0014 T00330033
KMDT 062225Z 10007KT 3SM RA BR BKN011 OVC041 03/03 A2988 RMK AO2 P0008 T00330033
KMDT 062156Z 09006KT 3SM RA BR FEW016 FEW024 OVC060 03/03 A2988 RMK AO2 PLE09 SLP121 P0017 T00330028
KMDT 062154Z 09006KT 3SM RA BR FEW018 FEW024 OVC060 03/03 A2988 RMK AO2 PLE09 P0016
KMDT 062122Z 11005KT 3SM RA BR FEW018 BKN024 OVC080 03/03 A2990 RMK AO2 PLE09 P0007 T00330028
KMDT 062115Z 11005KT 3SM RA BR SCT024 BKN060 OVC075 03/03 A2989 RMK AO2 PLE09 P0005 T00330028
KMDT 062056Z 08007KT 3SM PLRA BR FEW035 OVC075 03/03 A2988 RMK AO2 PLB11 PRESFR SLP121 P0013 60018 T00330028 56036
KMDT 062017Z 00000KT 4SM PLRA BR SCT029 BKN065 OVC080 03/03 A2993 RMK AO2 PLB11 P0004 T00330033
KMDT 061956Z 00000KT 5SM RA BR BKN029 OVC065 03/03 A2993 RMK AO2 SLP140 P0004 T00330033
KMDT 061856Z 08004KT 10SM -RA OVC100 04/02 A2991 RMK AO2 SLP133 P0001 T00390022
KMDT 061756Z 12005KT 10SM -RA OVC085 04/01 A2998 RMK AO2 SLP156 P0002 60002 T00390011 10044 20000 58033
KMDT 061656Z 12006KT 10SM -RA OVC090 04/00 A3002 RMK AO2 RAB49 PRESFR SLP169 P0000 T00390000 $
KMDT 061556Z 00000KT 10SM BKN100 OVC200 04/01 A3006 RMK AO2 SLP184 T00390006 $
KMDT 061456Z 09003KT 10SM SCT120 OVC200 03/00 A3008 RMK AO2 SLP189 T00280000 58008 $
KMDT 061356Z 32003KT 10SM BKN100 OVC200 01/00 A3010 RMK AO2 SLP195 T00110000 $
KMDT 061256Z 04003KT 10SM SCT100 OVC200 01/M01 A3009 RMK AO2 SLP193 T00061006 $
KMDT 061156Z 00000KT 10SM BKN200 01/M01 A3011 RMK AO2 SLP198 T00061011 10006 21011 55007 $
KMDT 061056Z 11003KT 10SM BKN200 M01/M02 A3010 RMK AO2 SLP196 T10061017 $
KMDT 060956Z 00000KT 10SM SCT200 BKN250 M01/M02 A3012 RMK AO2 SLP202 T10061017 $
KMDT 060856Z 00000KT 10SM BKN250 M01/M01 A3013 RMK AO2 SLP205 T10061011 50002 $
KMDT 060756Z 00000KT 10SM SCT250 M01/M01 A3013 RMK AO2 SLP207 T10061011 $
KMDT 060656Z 00000KT 10SM BKN250 00/M01 A3014 RMK AO2 SLP209 T00001011 $
KMDT 060556Z 00000KT 10SM BKN250 01/M01 A3012 RMK AO2 SLP203 T00061011 10050 20006 51006 $
KMDT 060456Z 33004KT 10SM BKN250 01/M01 A3012 RMK AO2 SLP203 T00111006 401060011 $
KMDT 060356Z 35003KT 10SM OVC250 03/00 A3013 RMK AO2 SLP204 T00280000 $
KMDT 060256Z 00000KT 10SM BKN250 03/00 A3011 RMK AO2 SLP197 T00280000 51005 $